^^
Grace C. Lehan Memorial Weather Station Historical Data
Daily Summary for May 8, 2022 Units:  Both    English   Metric
Daily Weekly Monthly Yearly
  High: Low: Average:
Temperature: 57.5 °F /  14.2 °C 40.4 °F /  4.7 °C 49.5 °F /  9.7 °C
Dew Point: 35.3 °F /  1.8 °C 20.4 °F /  -6.4 °C 29.1 °F /  -1.6 °C
Humidity: 63% 30% 46%
Wind Speed: 7.5mph /  12.1km/h - 2.3mph /  3.7km/h
Wind Gust: 18mph /  29km/h - -
Wind- - West
Pressure: 30.62 in /  1036.8 hPa 30.31 in /  1026.3 hPa -
Precipitation: 0.00 in /  0 mm    
 
 
Tabular Data for May 8, 2022
Time Temperature Dew Point Pressure Wind Wind Speed Wind Gust Humidity Rainfall Rate (Hourly) solar
00:04 51.9 °F /  11.1 °C 34.7 °F /  1.5 °C 30.31in /  1026.3hPa NW 4.7mph /  7.6km/h 16mph /  25.7km/h 51.8% 0.00in /  0mm 0 W/m2
00:09 51.7 °F /  10.9 °C 34.7 °F /  1.5 °C 30.31in /  1026.3hPa WNW 2.7mph /  4.3km/h 13mph /  20.9km/h 52% 0.00in /  0mm 0 W/m2
00:14 51.5 °F /  10.8 °C 34.7 °F /  1.5 °C 30.31in /  1026.3hPa WNW 4.2mph /  6.8km/h 13mph /  20.9km/h 52.5% 0.00in /  0mm 0 W/m2
00:19 51.5 °F /  10.8 °C 34.7 °F /  1.5 °C 30.31in /  1026.3hPa WNW 5mph /  8km/h 13mph /  20.9km/h 52.5% 0.00in /  0mm 0 W/m2
00:24 51.4 °F /  10.8 °C 34.9 °F /  1.6 °C 30.32in /  1026.6hPa NW 1.5mph /  2.4km/h 13mph /  20.9km/h 53% 0.00in /  0mm 0 W/m2
00:29 51.3 °F /  10.7 °C 34.8 °F /  1.6 °C 30.32in /  1026.6hPa NW 3mph /  4.8km/h 13mph /  20.9km/h 53% 0.00in /  0mm 0 W/m2
00:34 51.3 °F /  10.7 °C 34.7 °F /  1.5 °C 30.32in /  1026.6hPa WNW 3.5mph /  5.6km/h 13mph /  20.9km/h 53% 0.00in /  0mm 0 W/m2
00:39 51.2 °F /  10.7 °C 34.7 °F /  1.5 °C 30.32in /  1026.6hPa NW 7.5mph /  12.1km/h 15mph /  24.1km/h 53.1% 0.00in /  0mm 0 W/m2
00:44 51.1 °F /  10.6 °C 34.9 °F /  1.6 °C 30.32in /  1026.6hPa NW 6.7mph /  10.8km/h 15mph /  24.1km/h 53.6% 0.00in /  0mm 0 W/m2
00:49 51 °F /  10.6 °C 34.9 °F /  1.6 °C 30.32in /  1026.6hPa NW 3.7mph /  6km/h 15mph /  24.1km/h 53.9% 0.00in /  0mm 0 W/m2
00:54 51 °F /  10.6 °C 34.9 °F /  1.6 °C 30.33in /  1027hPa NW 2.4mph /  3.9km/h 15mph /  24.1km/h 54% 0.00in /  0mm 0 W/m2
00:59 50.8 °F /  10.4 °C 34.8 °F /  1.6 °C 30.33in /  1027hPa NW 1.3mph /  2.1km/h 15mph /  24.1km/h 54% 0.00in /  0mm 0 W/m2
01:04 50.6 °F /  10.3 °C 35 °F /  1.7 °C 30.33in /  1027hPa NW 2.2mph /  3.5km/h 15mph /  24.1km/h 54.8% 0.00in /  0mm 0 W/m2
01:09 50.5 °F /  10.3 °C 34.9 °F /  1.6 °C 30.33in /  1027hPa WNW 2.7mph /  4.3km/h 10mph /  16.1km/h 55% 0.00in /  0mm 0 W/m2
01:14 50.3 °F /  10.2 °C 34.8 °F /  1.6 °C 30.33in /  1027hPa NW 3.4mph /  5.5km/h 12mph /  19.3km/h 55% 0.00in /  0mm 0 W/m2
01:19 50.3 °F /  10.2 °C 34.9 °F /  1.6 °C 30.33in /  1027hPa NW 5.6mph /  9km/h 12mph /  19.3km/h 55.3% 0.00in /  0mm 0 W/m2
01:24 50.2 °F /  10.1 °C 35 °F /  1.7 °C 30.33in /  1027hPa NW 4.3mph /  6.9km/h 12mph /  19.3km/h 55.7% 0.00in /  0mm 0 W/m2
01:29 50.2 °F /  10.1 °C 35.1 °F /  1.7 °C 30.33in /  1027hPa NW 5mph /  8km/h 12mph /  19.3km/h 56% 0.00in /  0mm 0 W/m2
01:34 50.1 °F /  10.1 °C 35.1 °F /  1.7 °C 30.33in /  1027hPa NW 4.2mph /  6.8km/h 14mph /  22.5km/h 56% 0.00in /  0mm 0 W/m2
01:39 50.1 °F /  10.1 °C 35 °F /  1.7 °C 30.34in /  1027.3hPa NW 3.1mph /  5km/h 14mph /  22.5km/h 56% 0.00in /  0mm 0 W/m2
01:44 50 °F /  10 °C 35.2 °F /  1.8 °C 30.34in /  1027.3hPa NW 2.9mph /  4.7km/h 14mph /  22.5km/h 56.6% 0.00in /  0mm 0 W/m2
01:49 49.8 °F /  9.9 °C 35.2 °F /  1.8 °C 30.34in /  1027.3hPa NW 4.7mph /  7.6km/h 14mph /  22.5km/h 57% 0.00in /  0mm 0 W/m2
01:54 49.7 °F /  9.8 °C 35.1 °F /  1.7 °C 30.34in /  1027.3hPa NW 4mph /  6.4km/h 14mph /  22.5km/h 57% 0.00in /  0mm 0 W/m2
01:59 49.6 °F /  9.8 °C 35.1 °F /  1.7 °C 30.34in /  1027.3hPa NW 3.2mph /  5.1km/h 14mph /  22.5km/h 57.2% 0.00in /  0mm 0 W/m2
02:04 49.5 °F /  9.7 °C 35.3 °F /  1.8 °C 30.34in /  1027.3hPa NW 1.9mph /  3.1km/h 14mph /  22.5km/h 58% 0.00in /  0mm 0 W/m2
02:09 49.3 °F /  9.6 °C 35.2 °F /  1.8 °C 30.34in /  1027.3hPa NW 2.9mph /  4.7km/h 14mph /  22.5km/h 58% 0.00in /  0mm 0 W/m2
02:14 49.2 °F /  9.6 °C 35 °F /  1.7 °C 30.35in /  1027.7hPa NW 3.1mph /  5km/h 14mph /  22.5km/h 58% 0.00in /  0mm 0 W/m2
02:19 49 °F /  9.4 °C 34.9 °F /  1.6 °C 30.35in /  1027.7hPa NW 3.3mph /  5.3km/h 14mph /  22.5km/h 58.1% 0.00in /  0mm 0 W/m2
02:24 49 °F /  9.4 °C 35.2 °F /  1.8 °C 30.35in /  1027.7hPa NW 4.8mph /  7.7km/h 14mph /  22.5km/h 58.7% 0.00in /  0mm 0 W/m2
02:29 48.9 °F /  9.4 °C 35.1 °F /  1.7 °C 30.35in /  1027.7hPa NW 5mph /  8km/h 14mph /  22.5km/h 58.7% 0.00in /  0mm 0 W/m2
02:34 48.9 °F /  9.4 °C 35 °F /  1.7 °C 30.35in /  1027.7hPa NW 5.7mph /  9.2km/h 15mph /  24.1km/h 58.6% 0.00in /  0mm 0 W/m2
02:39 48.9 °F /  9.4 °C 34.8 °F /  1.6 °C 30.35in /  1027.7hPa NW 3.5mph /  5.6km/h 15mph /  24.1km/h 58% 0.00in /  0mm 0 W/m2
02:44 48.8 °F /  9.3 °C 34.7 °F /  1.5 °C 30.35in /  1027.7hPa NW 4.7mph /  7.6km/h 15mph /  24.1km/h 58% 0.00in /  0mm 0 W/m2
02:49 48.8 °F /  9.3 °C 35 °F /  1.7 °C 30.35in /  1027.7hPa NW 5.8mph /  9.3km/h 15mph /  24.1km/h 58.7% 0.00in /  0mm 0 W/m2
02:54 48.8 °F /  9.3 °C 34.8 °F /  1.6 °C 30.35in /  1027.7hPa NW 3.4mph /  5.5km/h 15mph /  24.1km/h 58.3% 0.00in /  0mm 0 W/m2
02:59 48.7 °F /  9.3 °C 35 °F /  1.7 °C 30.36in /  1028hPa NW 4.7mph /  7.6km/h 15mph /  24.1km/h 58.9% 0.00in /  0mm 0 W/m2
03:04 48.6 °F /  9.2 °C 34.9 °F /  1.6 °C 30.36in /  1028hPa NW 3.2mph /  5.1km/h 15mph /  24.1km/h 59% 0.00in /  0mm 0 W/m2
03:09 48.5 °F /  9.2 °C 34.8 °F /  1.6 °C 30.36in /  1028hPa NW 2.4mph /  3.9km/h 10mph /  16.1km/h 59% 0.00in /  0mm 0 W/m2
03:14 48.4 °F /  9.1 °C 34.7 °F /  1.5 °C 30.36in /  1028hPa NW 3.6mph /  5.8km/h 14mph /  22.5km/h 59% 0.00in /  0mm 0 W/m2
03:19 48.3 °F /  9.1 °C 34.7 °F /  1.5 °C 30.37in /  1028.3hPa NW 4.2mph /  6.8km/h 14mph /  22.5km/h 59% 0.00in /  0mm 0 W/m2
03:24 48.2 °F /  9 °C 34.8 °F /  1.6 °C 30.37in /  1028.3hPa NW 1.5mph /  2.4km/h 14mph /  22.5km/h 59.5% 0.00in /  0mm 0 W/m2
03:29 48.1 °F /  8.9 °C 34.9 °F /  1.6 °C 30.37in /  1028.3hPa NW 2mph /  3.2km/h 14mph /  22.5km/h 60% 0.00in /  0mm 0 W/m2
03:31 48.1 °F /  8.9 °C 34.9 °F /  1.6 °C 30.37in /  1028.3hPa WNW 2.8mph /  4.5km/h 14mph /  22.5km/h 60% 0.00in /  0mm 0 W/m2
04:04 47.2 °F /  8.4 °C 34.5 °F /  1.4 °C 30.38in /  1028.7hPa Calm     61% 0.00in /  0mm 0 W/m2
04:09 47.1 °F /  8.4 °C 34.7 °F /  1.5 °C 30.38in /  1028.7hPa NW 2.2mph /  3.5km/h 9mph /  14.5km/h 61.9% 0.00in /  0mm 0 W/m2
04:14 46.9 °F /  8.3 °C 34.6 °F /  1.4 °C 30.38in /  1028.7hPa NW 2mph /  3.2km/h 9mph /  14.5km/h 62% 0.00in /  0mm 0 W/m2
04:19 46.9 °F /  8.3 °C 34.6 °F /  1.4 °C 30.39in /  1029hPa NW 3.8mph /  6.1km/h 11mph /  17.7km/h 62% 0.00in /  0mm 0 W/m2
04:24 46.8 °F /  8.2 °C 34.5 °F /  1.4 °C 30.39in /  1029hPa WNW 2.5mph /  4km/h 11mph /  17.7km/h 62% 0.00in /  0mm 0 W/m2
05:00 46.1 °F /  7.8 °C 34.2 °F /  1.2 °C 30.40in /  1029.3hPa WNW 2mph /  3.2km/h 13mph /  20.9km/h 63% 0.00in /  0mm 0 W/m2
06:00 45.5 °F /  7.5 °C 33.7 °F /  0.9 °C 30.42in /  1030hPa NW 4mph /  6.4km/h 17mph /  27.4km/h 63% 0.00in /  0mm 0 W/m2
06:30 45.1 °F /  7.3 °C 32.9 °F /  0.5 °C 30.42in /  1030hPa NW 4mph /  6.4km/h 16mph /  25.7km/h 62% 0.00in /  0mm 0 W/m2
07:00 45.2 °F /  7.3 °C 33 °F /  0.6 °C 30.44in /  1030.7hPa NW 3mph /  4.8km/h 13mph /  20.9km/h 62% 0.00in /  0mm 14 W/m2
07:30 47.7 °F /  8.7 °C 34.1 °F /  1.2 °C 30.45in /  1031hPa WNW 3mph /  4.8km/h 12mph /  19.3km/h 59% 0.00in /  0mm 80 W/m2
08:04 50.6 °F /  10.3 °C 33.8 °F /  1 °C 30.47in /  1031.7hPa WNW 2.9mph /  4.7km/h 12mph /  19.3km/h 52.4% 0.00in /  0mm 225 W/m2
08:09 50.7 °F /  10.4 °C 33.9 °F /  1.1 °C 30.47in /  1031.7hPa NW 4mph /  6.4km/h 13mph /  20.9km/h 52.3% 0.00in /  0mm 244 W/m2
08:14 50.8 °F /  10.4 °C 34.1 °F /  1.2 °C 30.47in /  1031.7hPa NW 1.3mph /  2.1km/h 13mph /  20.9km/h 52.7% 0.00in /  0mm 288 W/m2
08:19 51.1 °F /  10.6 °C 34.3 °F /  1.3 °C 30.47in /  1031.7hPa NW 4.2mph /  6.8km/h 13mph /  20.9km/h 52.3% 0.00in /  0mm 308 W/m2
08:24 51.3 °F /  10.7 °C 34.2 °F /  1.2 °C 30.47in /  1031.7hPa WNW 3mph /  4.8km/h 13mph /  20.9km/h 51.8% 0.00in /  0mm 316 W/m2
08:29 51.6 °F /  10.9 °C 34.2 °F /  1.2 °C 30.47in /  1031.7hPa NW 4.3mph /  6.9km/h 13mph /  20.9km/h 51.2% 0.00in /  0mm 332 W/m2
08:34 52 °F /  11.1 °C 34.4 °F /  1.3 °C 30.47in /  1031.7hPa NW 3.1mph /  5km/h 13mph /  20.9km/h 51% 0.00in /  0mm 345 W/m2
08:39 52.3 °F /  11.3 °C 33.9 °F /  1.1 °C 30.47in /  1031.7hPa NW 4.2mph /  6.8km/h 14mph /  22.5km/h 49.4% 0.00in /  0mm 353 W/m2
08:44 52.5 °F /  11.4 °C 34.2 °F /  1.2 °C 30.47in /  1031.7hPa NNW 2.6mph /  4.2km/h 14mph /  22.5km/h 49.7% 0.00in /  0mm 366 W/m2
08:49 52.8 °F /  11.6 °C 33.9 °F /  1.1 °C 30.47in /  1031.7hPa NW 4.4mph /  7.1km/h 16mph /  25.7km/h 48.6% 0.00in /  0mm 380 W/m2
08:54 52.9 °F /  11.6 °C 33.9 °F /  1.1 °C 30.47in /  1031.7hPa NW 4.5mph /  7.2km/h 16mph /  25.7km/h 48.4% 0.00in /  0mm 392 W/m2
08:59 53.1 °F /  11.7 °C 34.1 °F /  1.2 °C 30.47in /  1031.7hPa NW 2.9mph /  4.7km/h 16mph /  25.7km/h 48.3% 0.00in /  0mm 401 W/m2
09:04 53.1 °F /  11.7 °C 33.5 °F /  0.8 °C 30.47in /  1031.7hPa NW 5.3mph /  8.5km/h 16mph /  25.7km/h 47.3% 0.00in /  0mm 413 W/m2
09:09 53 °F /  11.7 °C 33.4 °F /  0.8 °C 30.47in /  1031.7hPa NNW 4.2mph /  6.8km/h 13mph /  20.9km/h 47.2% 0.00in /  0mm 425 W/m2
09:14 52.8 °F /  11.6 °C 33.3 °F /  0.7 °C 30.48in /  1032.1hPa NW 3.5mph /  5.6km/h 14mph /  22.5km/h 47.3% 0.00in /  0mm 431 W/m2
09:19 52.6 °F /  11.4 °C 33.5 °F /  0.8 °C 30.48in /  1032.1hPa NW 2.5mph /  4km/h 14mph /  22.5km/h 48% 0.00in /  0mm 427 W/m2
09:24 52.6 °F /  11.4 °C 33.4 °F /  0.8 °C 30.48in /  1032.1hPa NW 2.9mph /  4.7km/h 14mph /  22.5km/h 48% 0.00in /  0mm 438 W/m2
09:29 52.5 °F /  11.4 °C 33.8 °F /  1 °C 30.48in /  1032.1hPa NNW 1.9mph /  3.1km/h 14mph /  22.5km/h 48.7% 0.00in /  0mm 413 W/m2
09:34 52.6 °F /  11.4 °C 33.5 °F /  0.8 °C 30.48in /  1032.1hPa NW 4.6mph /  7.4km/h 14mph /  22.5km/h 48% 0.00in /  0mm 411 W/m2
09:39 52.4 °F /  11.3 °C 33.4 °F /  0.8 °C 30.48in /  1032.1hPa NNW 3mph /  4.8km/h 14mph /  22.5km/h 48.2% 0.00in /  0mm 371 W/m2
09:44 52.2 °F /  11.2 °C 33.3 °F /  0.7 °C 30.48in /  1032.1hPa NW 2.5mph /  4km/h 14mph /  22.5km/h 48.4% 0.00in /  0mm 330 W/m2
09:49 52.3 °F /  11.3 °C 33.5 °F /  0.8 °C 30.48in /  1032.1hPa North 4.7mph /  7.6km/h 14mph /  22.5km/h 48.7% 0.00in /  0mm 410 W/m2
09:54 52.5 °F /  11.4 °C 32.9 °F /  0.5 °C 30.48in /  1032.1hPa NNW 4.3mph /  6.9km/h 14mph /  22.5km/h 47.2% 0.00in /  0mm 485 W/m2
09:59 52.7 °F /  11.5 °C 33 °F /  0.6 °C 30.47in /  1031.7hPa NNW 4.4mph /  7.1km/h 14mph /  22.5km/h 47% 0.00in /  0mm 359 W/m2
10:04 52.8 °F /  11.6 °C 33.1 °F /  0.6 °C 30.48in /  1032.1hPa NNW 2mph /  3.2km/h 14mph /  22.5km/h 47.1% 0.00in /  0mm 457 W/m2
10:09 53.1 °F /  11.7 °C 33.5 °F /  0.8 °C 30.48in /  1032.1hPa NNW 3.7mph /  6km/h 11mph /  17.7km/h 47.1% 0.00in /  0mm 519 W/m2
10:14 53.8 °F /  12.1 °C 33.1 °F /  0.6 °C 30.48in /  1032.1hPa NNW 5.5mph /  8.9km/h 15mph /  24.1km/h 45.2% 0.00in /  0mm 534 W/m2
10:19 54.5 °F /  12.5 °C 33.5 °F /  0.8 °C 30.47in /  1031.7hPa NNW 3.2mph /  5.1km/h 15mph /  24.1km/h 44.8% 0.00in /  0mm 543 W/m2
10:24 55.3 °F /  12.9 °C 33.2 °F /  0.7 °C 30.48in /  1032.1hPa NNW 2.4mph /  3.9km/h 15mph /  24.1km/h 43.1% 0.00in /  0mm 547 W/m2
10:29 55.5 °F /  13.1 °C 32.9 °F /  0.5 °C 30.47in /  1031.7hPa ENE 1.6mph /  2.6km/h 15mph /  24.1km/h 42.3% 0.00in /  0mm 559 W/m2
10:34 55.4 °F /  13 °C 33.4 °F /  0.8 °C 30.47in /  1031.7hPa North 2mph /  3.2km/h 15mph /  24.1km/h 43.1% 0.00in /  0mm 561 W/m2
10:39 55.6 °F /  13.1 °C 33.9 °F /  1.1 °C 30.48in /  1032.1hPa NW 2mph /  3.2km/h 12mph /  19.3km/h 43.6% 0.00in /  0mm 554 W/m2
10:44 55.8 °F /  13.2 °C 33.3 °F /  0.7 °C 30.48in /  1032.1hPa NNW 4.3mph /  6.9km/h 12mph /  19.3km/h 42.4% 0.00in /  0mm 418 W/m2
10:49 55.7 °F /  13.2 °C 33.3 °F /  0.7 °C 30.47in /  1031.7hPa NNW 1.8mph /  2.9km/h 12mph /  19.3km/h 42.4% 0.00in /  0mm 455 W/m2
10:54 55.7 °F /  13.2 °C 33.1 °F /  0.6 °C 30.47in /  1031.7hPa NW 3mph /  4.8km/h 12mph /  19.3km/h 42.2% 0.00in /  0mm 185 W/m2
10:59 55.8 °F /  13.2 °C 33.8 °F /  1 °C 30.47in /  1031.7hPa North 1.6mph /  2.6km/h 12mph /  19.3km/h 43.2% 0.00in /  0mm 76 W/m2
11:04 55.9 °F /  13.3 °C 33 °F /  0.6 °C 30.47in /  1031.7hPa North 3.1mph /  5km/h 12mph /  19.3km/h 41.8% 0.00in /  0mm 246 W/m2
11:07 55.9 °F /  13.3 °C 32.6 °F /  0.3 °C 30.47in /  1031.7hPa NNW 4.3mph /  6.9km/h 14mph /  22.5km/h 41% 0.00in /  0mm 468 W/m2
11:14 55.9 °F /  13.3 °C 32.7 °F /  0.4 °C 30.47in /  1031.7hPa North 2.6mph /  4.2km/h 14mph /  22.5km/h 41.2% 0.00in /  0mm 410 W/m2
11:19 55.9 °F /  13.3 °C 32.6 °F /  0.3 °C 30.47in /  1031.7hPa NNW 2.9mph /  4.7km/h 14mph /  22.5km/h 41% 0.00in /  0mm 545 W/m2
11:24 55.9 °F /  13.3 °C 31.9 °F /  -0.1 °C 30.47in /  1031.7hPa NNW 2.8mph /  4.5km/h 14mph /  22.5km/h 40% 0.00in /  0mm 545 W/m2
11:29 55.9 °F /  13.3 °C 32.1 °F /  0.1 °C 30.47in /  1031.7hPa North 2.3mph /  3.7km/h 14mph /  22.5km/h 40.2% 0.00in /  0mm 229 W/m2
11:34 56 °F /  13.3 °C 31.8 °F /  -0.1 °C 30.46in /  1031.4hPa NW 4mph /  6.4km/h 14mph /  22.5km/h 39.7% 0.00in /  0mm 538 W/m2
11:39 56.1 °F /  13.4 °C 31.6 °F /  -0.2 °C 30.46in /  1031.4hPa NNE 1.6mph /  2.6km/h 12mph /  19.3km/h 39.2% 0.00in /  0mm 564 W/m2
11:44 56.2 °F /  13.4 °C 31.4 °F /  -0.3 °C 30.46in /  1031.4hPa NE 0.5mph /  0.8km/h 12mph /  19.3km/h 38.7% 0.00in /  0mm 529 W/m2
11:49 56.3 °F /  13.5 °C 31.6 °F /  -0.2 °C 30.46in /  1031.4hPa North 1.4mph /  2.3km/h 12mph /  19.3km/h 38.8% 0.00in /  0mm 564 W/m2
11:54 56.5 °F /  13.6 °C 31 °F /  -0.6 °C 30.46in /  1031.4hPa North 5mph /  8km/h 16mph /  25.7km/h 37.8% 0.00in /  0mm 234 W/m2
11:59 56.5 °F /  13.6 °C 31.1 °F /  -0.5 °C 30.46in /  1031.4hPa NNW 2.2mph /  3.5km/h 16mph /  25.7km/h 37.8% 0.00in /  0mm 295 W/m2
12:04 56.4 °F /  13.6 °C 31.1 °F /  -0.5 °C 30.46in /  1031.4hPa North 1.2mph /  1.9km/h 4mph /  6.4km/h 38% 0.00in /  0mm 353 W/m2
12:09 56.3 °F /  13.5 °C 30.8 °F /  -0.7 °C 30.46in /  1031.4hPa North 3.4mph /  5.5km/h 13mph /  20.9km/h 37.6% 0.00in /  0mm 100 W/m2
12:14 56.3 °F /  13.5 °C 30.5 °F /  -0.8 °C 30.45in /  1031hPa NNE 3.1mph /  5km/h 13mph /  20.9km/h 37.2% 0.00in /  0mm 529 W/m2
12:19 56.3 °F /  13.5 °C 30.5 °F /  -0.8 °C 30.46in /  1031.4hPa NNW 5.9mph /  9.5km/h 17mph /  27.4km/h 37.1% 0.00in /  0mm 548 W/m2
12:20 56.3 °F /  13.5 °C 30.4 °F /  -0.9 °C 30.45in /  1031hPa NNW 3.7mph /  6km/h 17mph /  27.4km/h 37% 0.00in /  0mm 265 W/m2
13:00 56.7 °F /  13.7 °C 30.1 °F /  -1.1 °C 30.45in /  1031hPa NNW 4mph /  6.4km/h 16mph /  25.7km/h 36% 0.00in /  0mm 208 W/m2
13:30 57.1 °F /  13.9 °C 29.7 °F /  -1.3 °C 30.45in /  1031hPa NW 4mph /  6.4km/h 17mph /  27.4km/h 35% 0.00in /  0mm 128 W/m2
14:00 57.5 °F /  14.2 °C 27.9 °F /  -2.3 °C 30.46in /  1031.4hPa NW 4mph /  6.4km/h 18mph /  29km/h 32% 0.00in /  0mm 184 W/m2
14:30 56.6 °F /  13.7 °C 27.1 °F /  -2.7 °C 30.47in /  1031.7hPa NW 4mph /  6.4km/h 16mph /  25.7km/h 32% 0.00in /  0mm 155 W/m2
15:00 56 °F /  13.3 °C 25.8 °F /  -3.4 °C 30.47in /  1031.7hPa NW 3mph /  4.8km/h 14mph /  22.5km/h 31% 0.00in /  0mm 26 W/m2
15:30 55.5 °F /  13.1 °C 24.6 °F /  -4.1 °C 30.48in /  1032.1hPa NW 3mph /  4.8km/h 13mph /  20.9km/h 30% 0.00in /  0mm 21 W/m2
16:04 54.6 °F /  12.6 °C 23.8 °F /  -4.6 °C 30.49in /  1032.4hPa NNW 1.2mph /  1.9km/h 13mph /  20.9km/h 30% 0.00in /  0mm 21 W/m2
16:09 54.4 °F /  12.4 °C 23.8 °F /  -4.6 °C 30.50in /  1032.7hPa North 1.1mph /  1.8km/h 7mph /  11.3km/h 30.2% 0.00in /  0mm 12 W/m2
16:14 54.2 °F /  12.3 °C 23.7 °F /  -4.6 °C 30.50in /  1032.7hPa North 0.6mph /  1km/h 7mph /  11.3km/h 30.3% 0.00in /  0mm 11 W/m2
16:19 53.9 °F /  12.2 °C 23.9 °F /  -4.5 °C 30.50in /  1032.7hPa North 1.1mph /  1.8km/h 7mph /  11.3km/h 30.9% 0.00in /  0mm 11 W/m2
16:24 53.7 °F /  12.1 °C 23.7 °F /  -4.6 °C 30.50in /  1032.7hPa NNE 1.1mph /  1.8km/h 7mph /  11.3km/h 30.9% 0.00in /  0mm 9 W/m2
16:29 53.5 °F /  11.9 °C 23.5 °F /  -4.7 °C 30.50in /  1032.7hPa NNE 0.9mph /  1.4km/h 7mph /  11.3km/h 30.9% 0.00in /  0mm 7 W/m2
16:34 53.2 °F /  11.8 °C 23.7 °F /  -4.6 °C 30.50in /  1032.7hPa NNW 0.5mph /  0.8km/h 7mph /  11.3km/h 31.4% 0.00in /  0mm 0 W/m2
16:39 52.9 °F /  11.6 °C 23.9 °F /  -4.5 °C 30.50in /  1032.7hPa NNE 1.1mph /  1.8km/h 7mph /  11.3km/h 32% 0.00in /  0mm 0 W/m2
16:44 52.7 °F /  11.5 °C 23.7 °F /  -4.6 °C 30.51in /  1033.1hPa NNW 1.2mph /  1.9km/h 9mph /  14.5km/h 32% 0.00in /  0mm 0 W/m2
16:49 52.4 °F /  11.3 °C 23.5 °F /  -4.7 °C 30.51in /  1033.1hPa NNE 0.2mph /  0.3km/h 9mph /  14.5km/h 32% 0.00in /  0mm 0 W/m2
16:54 52.3 °F /  11.3 °C 23.3 °F /  -4.8 °C 30.51in /  1033.1hPa NNE 0.1mph /  0.2km/h 9mph /  14.5km/h 32% 0.00in /  0mm 0 W/m2
16:59 52 °F /  11.1 °C 23.3 °F /  -4.8 °C 30.52in /  1033.4hPa NNE 0.1mph /  0.2km/h 9mph /  14.5km/h 32.3% 0.00in /  0mm 0 W/m2
17:04 51.8 °F /  11 °C 23.7 °F /  -4.6 °C 30.52in /  1033.4hPa NNE 0.1mph /  0.2km/h 9mph /  14.5km/h 33% 0.00in /  0mm 0 W/m2
17:09 51.6 °F /  10.9 °C 23.8 °F /  -4.6 °C 30.52in /  1033.4hPa NNE 0.2mph /  0.3km/h 2mph /  3.2km/h 33.5% 0.00in /  0mm 0 W/m2
17:14 51.4 °F /  10.8 °C 23.9 °F /  -4.5 °C 30.52in /  1033.4hPa Calm   2mph /  3.2km/h 34% 0.00in /  0mm 0 W/m2
17:19 51.1 °F /  10.6 °C 23.7 °F /  -4.6 °C 30.52in /  1033.4hPa NNE 0.1mph /  0.2km/h 2mph /  3.2km/h 34% 0.00in /  0mm 0 W/m2
17:24 50.8 °F /  10.4 °C 23.9 °F /  -4.5 °C 30.53in /  1033.7hPa Calm   2mph /  3.2km/h 34.6% 0.00in /  0mm 0 W/m2
17:29 50.6 °F /  10.3 °C 24 °F /  -4.4 °C 30.53in /  1033.7hPa Calm   2mph /  3.2km/h 35% 0.00in /  0mm 0 W/m2
17:34 50.4 °F /  10.2 °C 24.4 °F /  -4.2 °C 30.53in /  1033.7hPa North 0.8mph /  1.3km/h 5mph /  8km/h 36% 0.00in /  0mm 0 W/m2
17:39 50 °F /  10 °C 23.5 °F /  -4.7 °C 30.54in /  1034.1hPa NNW 1.8mph /  2.9km/h 6mph /  9.7km/h 35% 0.00in /  0mm 0 W/m2
17:44 49.8 °F /  9.9 °C 22.6 °F /  -5.2 °C 30.54in /  1034.1hPa NW 3mph /  4.8km/h 11mph /  17.7km/h 34% 0.00in /  0mm 0 W/m2
17:49 49.6 °F /  9.8 °C 22.4 °F /  -5.3 °C 30.54in /  1034.1hPa NNW 2.5mph /  4km/h 11mph /  17.7km/h 34% 0.00in /  0mm 0 W/m2
17:54 49.5 °F /  9.7 °C 22.2 °F /  -5.4 °C 30.54in /  1034.1hPa NW 2.9mph /  4.7km/h 11mph /  17.7km/h 33.8% 0.00in /  0mm 0 W/m2
17:59 49.3 °F /  9.6 °C 21.8 °F /  -5.7 °C 30.54in /  1034.1hPa NW 3.3mph /  5.3km/h 11mph /  17.7km/h 33.5% 0.00in /  0mm 0 W/m2
18:04 49.2 °F /  9.6 °C 21.8 °F /  -5.7 °C 30.55in /  1034.4hPa NNW 3.4mph /  5.5km/h 12mph /  19.3km/h 33.7% 0.00in /  0mm 0 W/m2
18:09 49.1 °F /  9.5 °C 21.9 °F /  -5.6 °C 30.55in /  1034.4hPa NW 2.1mph /  3.4km/h 12mph /  19.3km/h 33.9% 0.00in /  0mm 0 W/m2
18:14 49 °F /  9.4 °C 21.9 °F /  -5.6 °C 30.55in /  1034.4hPa WNW 2.3mph /  3.7km/h 12mph /  19.3km/h 34% 0.00in /  0mm 0 W/m2
18:19 48.8 °F /  9.3 °C 21.7 °F /  -5.7 °C 30.55in /  1034.4hPa NW 2.3mph /  3.7km/h 12mph /  19.3km/h 34% 0.00in /  0mm 0 W/m2
18:20 48.7 °F /  9.3 °C 21.6 °F /  -5.8 °C 30.55in /  1034.4hPa NNW 1.4mph /  2.3km/h 12mph /  19.3km/h 34% 0.00in /  0mm 0 W/m2
19:00 47.2 °F /  8.4 °C 21 °F /  -6.1 °C 30.56in /  1034.8hPa NW 1mph /  1.6km/h 8mph /  12.9km/h 35% 0.00in /  0mm 0 W/m2
19:30 46.2 °F /  7.9 °C 20.7 °F /  -6.3 °C 30.57in /  1035.1hPa NW 1mph /  1.6km/h 10mph /  16.1km/h 36% 0.00in /  0mm 0 W/m2
20:04 45.4 °F /  7.4 °C 21 °F /  -6.1 °C 30.57in /  1035.1hPa NNW 0.3mph /  0.5km/h 10mph /  16.1km/h 37.6% 0.00in /  0mm 0 W/m2
20:09 45.2 °F /  7.3 °C 20.7 °F /  -6.3 °C 30.57in /  1035.1hPa NNW 0.5mph /  0.8km/h 4mph /  6.4km/h 37.3% 0.00in /  0mm 0 W/m2
20:14 45 °F /  7.2 °C 20.4 °F /  -6.4 °C 30.57in /  1035.1hPa NNW 0.5mph /  0.8km/h 5mph /  8km/h 37.1% 0.00in /  0mm 0 W/m2
20:19 44.9 °F /  7.2 °C 22 °F /  -5.6 °C 30.57in /  1035.1hPa Calm   5mph /  8km/h 39.9% 0.00in /  0mm 0 W/m2
20:24 44.9 °F /  7.2 °C 23.2 °F /  -4.9 °C 30.58in /  1035.4hPa Calm   5mph /  8km/h 42% 0.00in /  0mm 0 W/m2
20:29 44.8 °F /  7.1 °C 24.2 °F /  -4.3 °C 30.58in /  1035.4hPa NNW 0.2mph /  0.3km/h 5mph /  8km/h 43.9% 0.00in /  0mm 0 W/m2
20:34 44.7 °F /  7.1 °C 23.5 °F /  -4.7 °C 30.58in /  1035.4hPa NNW 0.1mph /  0.2km/h 5mph /  8km/h 42.8% 0.00in /  0mm 0 W/m2
20:39 44.6 °F /  7 °C 23.7 °F /  -4.6 °C 30.58in /  1035.4hPa NNW 0.3mph /  0.5km/h 3mph /  4.8km/h 43.4% 0.00in /  0mm 0 W/m2
20:44 44.5 °F /  6.9 °C 23.8 °F /  -4.6 °C 30.58in /  1035.4hPa NNW 0.4mph /  0.6km/h 3mph /  4.8km/h 43.6% 0.00in /  0mm 0 W/m2
20:49 44.5 °F /  6.9 °C 23.1 °F /  -4.9 °C 30.58in /  1035.4hPa NNW 1.1mph /  1.8km/h 9mph /  14.5km/h 42.4% 0.00in /  0mm 0 W/m2
20:54 44.5 °F /  6.9 °C 22.1 °F /  -5.5 °C 30.58in /  1035.4hPa NNW 1.4mph /  2.3km/h 9mph /  14.5km/h 40.6% 0.00in /  0mm 0 W/m2
20:59 44.5 °F /  6.9 °C 21.3 °F /  -5.9 °C 30.59in /  1035.8hPa NNW 0.1mph /  0.2km/h 9mph /  14.5km/h 39.3% 0.00in /  0mm 0 W/m2
21:04 44.4 °F /  6.9 °C 21.9 °F /  -5.6 °C 30.59in /  1035.8hPa NNW 0.3mph /  0.5km/h 9mph /  14.5km/h 40.4% 0.00in /  0mm 0 W/m2
21:09 44.3 °F /  6.8 °C 21.6 °F /  -5.8 °C 30.59in /  1035.8hPa Calm   4mph /  6.4km/h 40.1% 0.00in /  0mm 0 W/m2
21:14 44.1 °F /  6.7 °C 21.4 °F /  -5.9 °C 30.59in /  1035.8hPa NNW 0.1mph /  0.2km/h 4mph /  6.4km/h 40% 0.00in /  0mm 0 W/m2
21:19 43.9 °F /  6.6 °C 21.2 °F /  -6 °C 30.60in /  1036.1hPa Calm   4mph /  6.4km/h 40% 0.00in /  0mm 0 W/m2
21:24 43.7 °F /  6.5 °C 21.1 °F /  -6.1 °C 30.60in /  1036.1hPa Calm   4mph /  6.4km/h 40.3% 0.00in /  0mm 0 W/m2
21:29 43.6 °F /  6.4 °C 22.1 °F /  -5.5 °C 30.60in /  1036.1hPa Calm   4mph /  6.4km/h 42.2% 0.00in /  0mm 0 W/m2
21:34 43.4 °F /  6.3 °C 21.5 °F /  -5.8 °C 30.60in /  1036.1hPa Calm   4mph /  6.4km/h 41.3% 0.00in /  0mm 0 W/m2
21:39 43.2 °F /  6.2 °C 21.6 °F /  -5.8 °C 30.60in /  1036.1hPa Calm   1mph /  1.6km/h 41.8% 0.00in /  0mm 0 W/m2
21:44 42.9 °F /  6.1 °C 21.4 °F /  -5.9 °C 30.60in /  1036.1hPa NW 0.1mph /  0.2km/h 7mph /  11.3km/h 42% 0.00in /  0mm 0 W/m2
21:49 42.6 °F /  5.9 °C 21.7 °F /  -5.7 °C 30.59in /  1035.8hPa NE 0.1mph /  0.2km/h 7mph /  11.3km/h 42.9% 0.00in /  0mm 0 W/m2
21:54 42.5 °F /  5.8 °C 21.6 °F /  -5.8 °C 30.60in /  1036.1hPa NE 0.6mph /  1km/h 7mph /  11.3km/h 43% 0.00in /  0mm 0 W/m2
21:59 42.4 °F /  5.8 °C 22 °F /  -5.6 °C 30.60in /  1036.1hPa North 1mph /  1.6km/h 7mph /  11.3km/h 43.9% 0.00in /  0mm 0 W/m2
22:04 42.4 °F /  5.8 °C 22.1 °F /  -5.5 °C 30.60in /  1036.1hPa NE 1mph /  1.6km/h 7mph /  11.3km/h 44% 0.00in /  0mm 0 W/m2
22:09 42.5 °F /  5.8 °C 21.9 °F /  -5.6 °C 30.60in /  1036.1hPa ENE 0.1mph /  0.2km/h 6mph /  9.7km/h 43.5% 0.00in /  0mm 0 W/m2
22:14 42.4 °F /  5.8 °C 22.3 °F /  -5.4 °C 30.60in /  1036.1hPa NNE 0.4mph /  0.6km/h 6mph /  9.7km/h 44.4% 0.00in /  0mm 0 W/m2
22:19 42.4 °F /  5.8 °C 22.4 °F /  -5.3 °C 30.61in /  1036.5hPa North 0.9mph /  1.4km/h 10mph /  16.1km/h 44.8% 0.00in /  0mm 0 W/m2
22:24 42.2 °F /  5.7 °C 22.7 °F /  -5.2 °C 30.61in /  1036.5hPa North 1.5mph /  2.4km/h 10mph /  16.1km/h 45.4% 0.00in /  0mm 0 W/m2
22:29 42.2 °F /  5.7 °C 22.9 °F /  -5.1 °C 30.60in /  1036.1hPa NNW 2.2mph /  3.5km/h 10mph /  16.1km/h 46% 0.00in /  0mm 0 W/m2
22:34 42.1 °F /  5.6 °C 22.8 °F /  -5.1 °C 30.60in /  1036.1hPa NNW 2.2mph /  3.5km/h 13mph /  20.9km/h 46% 0.00in /  0mm 0 W/m2
22:39 42.1 °F /  5.6 °C 22.9 °F /  -5.1 °C 30.60in /  1036.1hPa NE 0.6mph /  1km/h 13mph /  20.9km/h 46.2% 0.00in /  0mm 0 W/m2
22:44 42.1 °F /  5.6 °C 23.3 °F /  -4.8 °C 30.60in /  1036.1hPa North 1.9mph /  3.1km/h 13mph /  20.9km/h 46.8% 0.00in /  0mm 0 W/m2
22:49 42.1 °F /  5.6 °C 23.3 °F /  -4.8 °C 30.60in /  1036.1hPa NE 1mph /  1.6km/h 13mph /  20.9km/h 47% 0.00in /  0mm 0 W/m2
22:54 42 °F /  5.6 °C 23.3 °F /  -4.8 °C 30.60in /  1036.1hPa NNW 1.1mph /  1.8km/h 13mph /  20.9km/h 47% 0.00in /  0mm 0 W/m2
22:59 42 °F /  5.6 °C 23.5 °F /  -4.7 °C 30.60in /  1036.1hPa NNW 1.1mph /  1.8km/h 13mph /  20.9km/h 47.5% 0.00in /  0mm 0 W/m2
23:04 41.8 °F /  5.4 °C 23.6 °F /  -4.7 °C 30.60in /  1036.1hPa NNW 1.2mph /  1.9km/h 4mph /  6.4km/h 48% 0.00in /  0mm 0 W/m2
23:09 41.8 °F /  5.4 °C 23.6 °F /  -4.7 °C 30.61in /  1036.5hPa North 0.4mph /  0.6km/h 6mph /  9.7km/h 48% 0.00in /  0mm 0 W/m2
23:14 41.7 °F /  5.4 °C 23.9 °F /  -4.5 °C 30.61in /  1036.5hPa NNW 0.7mph /  1.1km/h 7mph /  11.3km/h 48.8% 0.00in /  0mm 0 W/m2
23:19 41.6 °F /  5.3 °C 23.9 °F /  -4.5 °C 30.61in /  1036.5hPa NNE 0.4mph /  0.6km/h 7mph /  11.3km/h 49% 0.00in /  0mm 0 W/m2
23:24 41.5 °F /  5.3 °C 23.8 °F /  -4.6 °C 30.61in /  1036.5hPa NE 0.1mph /  0.2km/h 7mph /  11.3km/h 49% 0.00in /  0mm 0 W/m2
23:29 41.4 °F /  5.2 °C 23.8 °F /  -4.6 °C 30.61in /  1036.5hPa North 0.2mph /  0.3km/h 7mph /  11.3km/h 49.2% 0.00in /  0mm 0 W/m2
23:34 41.3 °F /  5.2 °C 24 °F /  -4.4 °C 30.61in /  1036.5hPa North 0.1mph /  0.2km/h 7mph /  11.3km/h 50% 0.00in /  0mm 0 W/m2
23:39 41.1 °F /  5.1 °C 23.9 °F /  -4.5 °C 30.61in /  1036.5hPa Calm   2mph /  3.2km/h 50% 0.00in /  0mm 0 W/m2
23:44 41 °F /  5 °C 23.9 °F /  -4.5 °C 30.62in /  1036.8hPa NNE 0.1mph /  0.2km/h 2mph /  3.2km/h 50.3% 0.00in /  0mm 0 W/m2
23:49 40.8 °F /  4.9 °C 24.2 °F /  -4.3 °C 30.62in /  1036.8hPa NNE 0.1mph /  0.2km/h 2mph /  3.2km/h 51.3% 0.00in /  0mm 0 W/m2
23:54 40.6 °F /  4.8 °C 24 °F /  -4.4 °C 30.62in /  1036.8hPa Calm   2mph /  3.2km/h 51.1% 0.00in /  0mm 0 W/m2
23:59 40.4 °F /  4.7 °C 24.5 °F /  -4.2 °C 30.62in /  1036.8hPa Calm   2mph /  3.2km/h 52.6% 0.00in /  0mm 0 W/m2
Hartford County Weather
Compliments of Weather Underground - 2 mb